createdAt,value
2019-02-12T00:04:45.813Z,84.20
2019-02-12T00:09:51.318Z,84.40
2019-02-12T00:14:56.759Z,84.70
2019-02-12T00:20:02.309Z,84.80
2019-02-12T00:25:07.696Z,85.00
2019-02-12T00:30:13.141Z,84.80
2019-02-12T00:35:18.480Z,84.60
2019-02-12T00:40:23.835Z,84.50
2019-02-12T00:45:29.219Z,84.40
2019-02-12T00:50:34.574Z,84.30
2019-02-12T00:55:39.974Z,84.20
2019-02-12T01:00:45.490Z,84.10
2019-02-12T01:05:50.815Z,84.80
2019-02-12T01:10:56.159Z,84.10
2019-02-12T01:16:01.663Z,84.10
2019-02-12T01:21:06.989Z,84.00
2019-02-12T01:26:12.329Z,84.00
2019-02-12T01:31:17.738Z,84.10
2019-02-12T01:36:23.136Z,83.90
2019-02-12T01:41:28.455Z,84.00
2019-02-12T01:46:33.714Z,84.40
2019-02-12T01:51:39.030Z,84.40
2019-02-12T01:56:44.462Z,84.60
2019-02-12T02:01:49.825Z,84.50
2019-02-12T02:06:55.179Z,84.40
2019-02-12T02:12:00.557Z,84.40
2019-02-12T02:17:05.837Z,84.50
2019-02-12T02:22:11.210Z,84.50
2019-02-12T02:27:16.548Z,84.80
2019-02-12T02:32:21.965Z,84.80
2019-02-12T02:37:27.415Z,84.90
2019-02-12T02:42:32.702Z,85.10
2019-02-12T02:47:38.020Z,85.80
2019-02-12T02:52:43.388Z,85.20
2019-02-12T02:57:48.856Z,85.60
2019-02-12T03:02:54.186Z,85.80
2019-02-12T03:07:59.657Z,86.10
2019-02-12T03:13:05.073Z,86.00
2019-02-12T03:18:10.542Z,86.30
2019-02-12T03:23:15.863Z,86.50
2019-02-12T03:28:21.161Z,86.60
2019-02-12T03:33:26.615Z,86.50
2019-02-12T03:38:31.937Z,86.40
2019-02-12T03:43:37.215Z,86.50
2019-02-12T03:48:42.580Z,86.90
2019-02-12T03:53:47.875Z,87.00
2019-02-12T03:58:53.297Z,87.30
2019-02-12T04:03:58.654Z,87.70
2019-02-12T04:09:05.007Z,88.00
2019-02-12T04:14:10.439Z,88.00
2019-02-12T04:19:15.745Z,88.10
2019-02-12T04:24:21.028Z,88.10
2019-02-12T04:29:26.333Z,88.00
2019-02-12T04:34:31.710Z,88.00
2019-02-12T04:39:37.243Z,88.20
2019-02-12T04:44:42.614Z,88.60
2019-02-12T04:49:47.983Z,88.60
2019-02-12T04:54:53.356Z,88.60
2019-02-12T04:59:58.790Z,88.90
2019-02-12T05:05:04.281Z,89.00
2019-02-12T05:10:11.914Z,89.30
2019-02-12T05:15:17.232Z,89.20
2019-02-12T05:20:22.545Z,88.90
2019-02-12T05:25:27.893Z,88.70
2019-02-12T05:30:33.259Z,88.70
2019-02-12T05:35:38.739Z,88.80
2019-02-12T05:40:44.066Z,88.90
2019-02-12T05:45:49.337Z,89.10
2019-02-12T05:50:54.752Z,89.40
2019-02-12T05:56:00.047Z,89.50
2019-02-12T06:01:05.385Z,89.70
2019-02-12T06:06:10.713Z,90.00
2019-02-12T06:11:16.016Z,90.10
2019-02-12T06:16:21.348Z,90.00
2019-02-12T06:21:26.680Z,89.90
2019-02-12T06:26:32.046Z,89.80
2019-02-12T06:31:37.405Z,89.60
2019-02-12T06:36:42.753Z,89.50
2019-02-12T06:41:48.090Z,89.70
2019-02-12T06:46:53.661Z,89.70
2019-02-12T06:51:59.027Z,89.60
2019-02-12T06:57:04.421Z,89.70
2019-02-12T07:03:03.433Z,89.90
2019-02-12T07:09:16.145Z,90.00
2019-02-12T07:14:51.193Z,89.90
2019-02-12T07:20:40.935Z,90.00
2019-02-12T07:26:42.514Z,90.00
2019-02-12T07:32:37.874Z,90.00
2019-02-12T07:38:27.424Z,89.70
2019-02-12T07:44:36.757Z,89.00
2019-02-12T07:50:53.176Z,88.40
2019-02-12T07:56:28.469Z,87.60
2019-02-12T08:02:33.788Z,86.80
2019-02-12T08:09:01.485Z,85.90
2019-02-12T08:14:54.724Z,80.00
2019-02-12T08:21:07.731Z,76.70
2019-02-12T08:27:08.029Z,77.00
2019-02-12T08:33:03.082Z,77.80
2019-02-12T08:38:51.384Z,78.30
2019-02-12T08:44:28.448Z,78.00
2019-02-12T08:50:03.885Z,77.90
2019-02-12T08:56:04.030Z,77.90
2019-02-12T09:02:48.601Z,78.10
2019-02-12T09:08:38.668Z,78.10
2019-02-12T09:14:16.530Z,78.10
2019-02-12T09:19:45.309Z,77.90
2019-02-12T09:25:54.294Z,77.50
2019-02-12T09:32:07.601Z,76.30
2019-02-12T09:38:24.163Z,75.60
2019-02-12T09:44:26.957Z,75.20
2019-02-12T09:50:26.842Z,75.00
2019-02-12T09:55:51.928Z,75.00
2019-02-12T10:01:47.999Z,74.80
2019-02-12T10:07:30.724Z,74.20
2019-02-12T10:12:59.116Z,73.60
2019-02-12T10:18:44.106Z,72.70
2019-02-12T10:24:26.138Z,71.40
2019-02-12T10:30:19.053Z,69.70
2019-02-12T10:35:24.471Z,69.00
2019-02-12T10:40:29.838Z,67.90
2019-02-12T10:45:35.257Z,67.40
2019-02-12T10:50:40.587Z,67.70
2019-02-12T10:55:46.052Z,67.60
2019-02-12T11:00:51.433Z,67.40
2019-02-12T11:05:57.097Z,66.90
2019-02-12T11:11:02.462Z,66.70
2019-02-12T11:16:08.013Z,66.40
2019-02-12T11:21:13.709Z,66.20
2019-02-12T11:26:19.105Z,66.40
2019-02-12T11:31:24.566Z,66.40
2019-02-12T11:36:29.973Z,66.00
2019-02-12T11:41:37.158Z,65.90
2019-02-12T11:46:42.521Z,65.70
2019-02-12T11:51:47.967Z,65.00
2019-02-12T11:56:53.357Z,65.00
2019-02-12T12:01:58.891Z,65.40
2019-02-12T12:07:04.322Z,65.50
2019-02-12T12:12:09.719Z,65.30
2019-02-12T12:17:15.034Z,65.00
2019-02-12T12:22:20.387Z,64.90
2019-02-12T12:27:25.736Z,64.30
2019-02-12T12:32:31.173Z,63.70
2019-02-12T12:37:36.473Z,63.30
2019-02-12T12:42:41.998Z,62.70
2019-02-12T12:47:47.364Z,62.00
2019-02-12T12:52:52.762Z,61.50
2019-02-12T12:57:58.512Z,61.70
2019-02-12T13:03:03.912Z,61.80
2019-02-12T13:08:09.373Z,62.10
2019-02-12T13:13:14.698Z,62.10
2019-02-12T13:18:20.031Z,60.80
2019-02-12T13:23:25.399Z,60.40
2019-02-12T13:28:30.875Z,60.10
2019-02-12T13:33:36.246Z,59.10
2019-02-12T13:38:41.535Z,59.50
2019-02-12T13:43:46.871Z,59.60
2019-02-12T13:48:52.554Z,59.90
2019-02-12T13:53:57.968Z,59.40
2019-02-12T13:59:03.262Z,59.20
2019-02-12T14:04:08.805Z,59.20
2019-02-12T14:09:14.281Z,59.10
2019-02-12T14:14:19.809Z,59.20
2019-02-12T14:19:25.158Z,58.80
2019-02-12T14:24:30.491Z,58.70
2019-02-12T14:29:36.061Z,58.40
2019-02-12T14:34:41.508Z,58.60
2019-02-12T14:39:46.915Z,58.80
2019-02-12T14:44:52.379Z,59.10
2019-02-12T14:49:58.024Z,59.50
2019-02-12T14:55:03.355Z,59.70
2019-02-12T15:00:12.030Z,59.60
2019-02-12T15:05:17.370Z,59.60
2019-02-12T15:10:22.738Z,59.60
2019-02-12T15:15:28.089Z,59.70
2019-02-12T15:20:33.547Z,60.10
2019-02-12T15:25:41.992Z,60.60
2019-02-12T15:30:45.927Z,61.30
2019-02-12T15:35:51.403Z,62.00
2019-02-12T15:40:59.079Z,62.90
2019-02-12T15:46:04.434Z,63.20
2019-02-12T15:51:09.714Z,63.60
2019-02-12T15:56:15.116Z,64.00
2019-02-12T16:01:20.497Z,64.40
2019-02-12T16:06:25.813Z,65.20
2019-02-12T16:11:31.089Z,65.70
2019-02-12T16:16:37.676Z,66.30
2019-02-12T16:21:43.111Z,67.10
2019-02-12T16:26:48.543Z,67.60
2019-02-12T16:31:53.956Z,68.10
2019-02-12T16:36:59.444Z,68.40
2019-02-12T16:42:04.906Z,68.90
2019-02-12T16:47:10.279Z,69.30
2019-02-12T16:52:20.815Z,69.70
2019-02-12T16:57:22.711Z,70.30
2019-02-12T17:02:28.002Z,70.70
2019-02-12T17:07:33.521Z,71.10
2019-02-12T17:12:39.055Z,71.60
2019-02-12T17:17:44.413Z,72.20
2019-02-12T17:22:49.739Z,72.40
2019-02-12T17:27:55.529Z,72.70
2019-02-12T17:33:01.034Z,73.00
2019-02-12T17:38:06.434Z,73.20
2019-02-12T17:43:14.652Z,73.40
2019-02-12T17:48:19.992Z,73.50
2019-02-12T17:53:25.310Z,73.90
2019-02-12T17:58:30.654Z,74.10
2019-02-12T18:03:36.038Z,74.40
2019-02-12T18:08:44.401Z,74.80
2019-02-12T18:13:48.644Z,75.10
2019-02-12T18:18:54.230Z,75.30
2019-02-12T18:24:00.037Z,75.70
2019-02-12T18:29:08.381Z,76.00
2019-02-12T18:34:13.754Z,75.90
2019-02-12T18:39:19.108Z,75.80
2019-02-12T18:44:24.498Z,75.80
2019-02-12T18:49:29.960Z,75.80
2019-02-12T18:54:35.487Z,75.90
2019-02-12T18:59:40.840Z,76.00
2019-02-12T19:04:46.305Z,76.30
2019-02-12T19:09:51.867Z,76.30
2019-02-12T19:14:57.338Z,76.50
2019-02-12T19:20:02.683Z,76.70
2019-02-12T19:25:08.940Z,76.80
2019-02-12T19:30:16.254Z,77.00
2019-02-12T19:35:23.994Z,77.30
2019-02-12T19:40:29.856Z,77.30
2019-02-12T19:45:35.304Z,77.60
2019-02-12T19:50:40.640Z,77.70
2019-02-12T19:55:46.035Z,78.00
2019-02-12T20:00:51.454Z,78.20
2019-02-12T20:05:56.966Z,78.40
2019-02-12T20:11:02.344Z,78.40
2019-02-12T20:16:07.683Z,78.40
2019-02-12T20:21:13.128Z,78.60
2019-02-12T20:26:18.490Z,78.70
2019-02-12T20:31:23.929Z,78.60
2019-02-12T20:36:29.323Z,79.00
2019-02-12T20:41:34.748Z,78.90
2019-02-12T20:46:40.230Z,79.20
2019-02-12T20:51:45.551Z,79.30
2019-02-12T20:56:50.889Z,78.90
2019-02-12T21:01:56.288Z,78.80
2019-02-12T21:07:01.820Z,78.80
2019-02-12T21:12:07.308Z,79.00
2019-02-12T21:17:12.730Z,79.00
2019-02-12T21:22:18.345Z,79.30
2019-02-12T21:27:23.878Z,79.40
2019-02-12T21:32:29.451Z,79.20
2019-02-12T21:37:34.771Z,79.70
2019-02-12T21:42:40.271Z,79.70
2019-02-12T21:47:45.914Z,79.90
2019-02-12T21:52:51.368Z,80.00
2019-02-12T21:57:56.761Z,80.20
2019-02-12T22:03:02.214Z,80.20
2019-02-12T22:08:07.977Z,80.30
2019-02-12T22:13:13.783Z,80.80
2019-02-12T22:18:19.192Z,80.90
2019-02-12T22:23:28.323Z,80.80
2019-02-12T22:28:33.728Z,80.80
2019-02-12T22:33:39.178Z,80.90
2019-02-12T22:38:44.464Z,81.10
2019-02-12T22:43:49.816Z,81.30
2019-02-12T22:48:55.276Z,81.50
2019-02-12T22:54:00.657Z,81.50
2019-02-12T22:59:06.067Z,81.60
2019-02-12T23:04:11.442Z,81.70
2019-02-12T23:09:17.874Z,81.90
2019-02-12T23:14:23.247Z,81.90
2019-02-12T23:19:28.595Z,81.90
2019-02-12T23:24:34.005Z,81.80
2019-02-12T23:29:39.361Z,81.90
2019-02-12T23:34:44.708Z,81.90
2019-02-12T23:39:50.112Z,82.10
2019-02-12T23:44:57.722Z,82.10
2019-02-12T23:50:03.144Z,82.20
2019-02-12T23:55:08.724Z,82.30
